sensor_id;sensor_type;location;lat;lon;timestamp;pressure;altitude;pressure_sealevel;temperature;humidity
63622;BME280;49770;47.544;19.074;2023-03-07T05:12:17;99273.78;;;0.88;100.00
63622;BME280;49770;47.544;19.074;2023-03-07T05:15:20;99271.38;;;0.80;100.00
63622;BME280;49770;47.544;19.074;2023-03-07T05:18:24;99273.09;;;0.80;100.00
63622;BME280;49770;47.544;19.074;2023-03-07T05:21:27;99271.41;;;0.79;100.00
63622;BME280;49770;47.544;19.074;2023-03-07T05:24:30;99269.66;;;0.79;100.00
63622;BME280;49770;47.544;19.074;2023-03-07T05:27:33;99271.38;;;0.80;100.00
63622;BME280;49770;47.544;19.074;2023-03-07T05:30:36;99272.09;;;0.86;100.00
63622;BME280;49770;47.544;19.074;2023-03-07T05:33:39;99276.25;;;0.93;100.00
63622;BME280;49770;47.544;19.074;2023-03-07T05:36:44;99283.94;;;0.98;100.00
63622;BME280;49770;47.544;19.074;2023-03-07T05:39:47;99283.84;;;1.02;100.00
63622;BME280;49770;47.544;19.074;2023-03-07T05:42:52;99279.81;;;1.22;100.00
63622;BME280;49770;47.544;19.074;2023-03-07T05:45:55;99281.53;;;1.52;100.00
63622;BME280;49770;47.544;19.074;2023-03-07T05:48:58;99284.19;;;1.50;100.00
63622;BME280;49770;47.544;19.074;2023-03-07T05:52:02;99277.47;;;1.41;100.00
63622;BME280;49770;47.544;19.074;2023-03-07T05:55:06;99280.62;;;1.53;100.00
63622;BME280;49770;47.544;19.074;2023-03-07T05:58:09;99287.06;;;1.42;100.00
63622;BME280;49770;47.544;19.074;2023-03-07T06:01:12;99286.34;;;1.37;100.00
63622;BME280;49770;47.544;19.074;2023-03-07T06:04:15;99289.59;;;1.44;100.00
63622;BME280;49770;47.544;19.074;2023-03-07T06:07:17;99291.28;;;1.46;100.00
63622;BME280;49770;47.544;19.074;2023-03-07T06:10:21;99293.88;;;1.46;100.00
63622;BME280;49770;47.544;19.074;2023-03-07T06:13:24;99293.66;;;1.54;100.00
63622;BME280;49770;47.544;19.074;2023-03-07T06:16:27;99301.88;;;1.72;100.00
63622;BME280;49770;47.544;19.074;2023-03-07T06:19:30;99307.09;;;1.72;100.00
63622;BME280;49770;47.544;19.074;2023-03-07T06:22:33;99310.16;;;1.85;100.00
63622;BME280;49770;47.544;19.074;2023-03-07T06:25:39;99313.47;;;1.92;100.00
63622;BME280;49770;47.544;19.074;2023-03-07T06:28:42;99321.88;;;2.01;100.00
63622;BME280;49770;47.544;19.074;2023-03-07T06:31:45;99319.59;;;2.19;100.00
63622;BME280;49770;47.544;19.074;2023-03-07T06:34:48;99318.88;;;2.41;100.00
63622;BME280;49770;47.544;19.074;2023-03-07T06:37:51;99318.81;;;2.42;100.00
63622;BME280;49770;47.544;19.074;2023-03-07T06:40:54;99322.50;;;2.37;100.00
63622;BME280;49770;47.544;19.074;2023-03-07T06:43:58;99324.81;;;2.46;100.00
63622;BME280;49770;47.544;19.074;2023-03-07T06:47:01;99317.78;;;2.48;100.00
63622;BME280;49770;47.544;19.074;2023-03-07T06:50:04;99322.22;;;2.72;100.00
63622;BME280;49770;47.544;19.074;2023-03-07T06:53:07;99325.72;;;2.72;100.00
63622;BME280;49770;47.544;19.074;2023-03-07T06:56:11;99323.16;;;2.71;100.00
63622;BME280;49770;47.544;19.074;2023-03-07T06:59:14;99318.44;;;2.80;100.00
63622;BME280;49770;47.544;19.074;2023-03-07T07:02:17;99323.09;;;2.97;100.00
63622;BME280;49770;47.544;19.074;2023-03-07T07:05:20;99327.88;;;3.10;100.00
63622;BME280;49770;47.544;19.074;2023-03-07T07:08:25;99332.94;;;3.40;100.00
63622;BME280;49770;47.544;19.074;2023-03-07T07:11:31;99326.28;;;3.55;100.00
63622;BME280;49770;47.544;19.074;2023-03-07T07:14:34;99322.53;;;3.61;100.00
63622;BME280;49770;47.544;19.074;2023-03-07T07:17:37;99321.28;;;3.71;100.00
63622;BME280;49770;47.544;19.074;2023-03-07T07:20:43;99329.41;;;3.87;100.00
63622;BME280;49770;47.544;19.074;2023-03-07T07:23:46;99325.03;;;4.10;100.00
63622;BME280;49770;47.544;19.074;2023-03-07T07:26:49;99326.69;;;4.13;100.00
63622;BME280;49770;47.544;19.074;2023-03-07T07:29:52;99333.50;;;3.95;100.00
63622;BME280;49770;47.544;19.074;2023-03-07T07:32:55;99338.72;;;3.96;100.00
63622;BME280;49770;47.544;19.074;2023-03-07T07:35:59;99329.06;;;3.97;100.00
63622;BME280;49770;47.544;19.074;2023-03-07T07:39:06;99338.22;;;4.31;100.00
63622;BME280;49770;47.544;19.074;2023-03-07T07:42:10;99332.75;;;4.58;100.00
63622;BME280;49770;47.544;19.074;2023-03-07T07:45:16;99330.47;;;4.92;100.00
63622;BME280;49770;47.544;19.074;2023-03-07T07:48:20;99335.94;;;5.08;100.00
63622;BME280;49770;47.544;19.074;2023-03-07T07:51:23;99339.06;;;5.16;100.00
63622;BME280;49770;47.544;19.074;2023-03-07T07:54:28;99334.69;;;5.36;100.00
63622;BME280;49770;47.544;19.074;2023-03-07T07:57:31;99333.34;;;5.46;100.00
63622;BME280;49770;47.544;19.074;2023-03-07T08:00:34;99335.84;;;5.49;100.00
63622;BME280;49770;47.544;19.074;2023-03-07T08:03:39;99332.78;;;5.39;100.00
63622;BME280;49770;47.544;19.074;2023-03-07T08:06:41;99330.00;;;5.43;100.00
63622;BME280;49770;47.544;19.074;2023-03-07T08:09:46;99329.72;;;5.49;100.00
63622;BME280;49770;47.544;19.074;2023-03-07T08:12:49;99336.75;;;5.29;100.00
63622;BME280;49770;47.544;19.074;2023-03-07T08:15:53;99334.91;;;5.31;100.00
63622;BME280;49770;47.544;19.074;2023-03-07T08:18:56;99329.44;;;5.74;100.00
63622;BME280;49770;47.544;19.074;2023-03-07T08:22:00;99328.59;;;6.12;100.00
63622;BME280;49770;47.544;19.074;2023-03-07T08:25:07;99327.81;;;6.10;100.00
63622;BME280;49770;47.544;19.074;2023-03-07T08:28:12;99333.53;;;6.55;100.00
63622;BME280;49770;47.544;19.074;2023-03-07T08:31:21;99328.81;;;6.80;100.00
63622;BME280;49770;47.544;19.074;2023-03-07T08:34:25;99330.50;;;6.98;100.00
63622;BME280;49770;47.544;19.074;2023-03-07T08:37:28;99333.44;;;7.27;99.37
63622;BME280;49770;47.544;19.074;2023-03-07T08:40:31;99339.41;;;7.13;94.51
63622;BME280;49770;47.544;19.074;2023-03-07T08:43:35;99342.12;;;7.46;91.25
63622;BME280;49770;47.544;19.074;2023-03-07T08:46:38;99337.69;;;7.30;86.27
63622;BME280;49770;47.544;19.074;2023-03-07T08:49:41;99335.16;;;6.93;79.46
63622;BME280;49770;47.544;19.074;2023-03-07T08:52:44;99345.44;;;7.15;77.09
63622;BME280;49770;47.544;19.074;2023-03-07T08:55:47;99344.09;;;7.42;79.66
63622;BME280;49770;47.544;19.074;2023-03-07T08:58:52;99342.53;;;7.38;76.30
63622;BME280;49770;47.544;19.074;2023-03-07T09:01:55;99338.69;;;7.27;75.12
63622;BME280;49770;47.544;19.074;2023-03-07T09:04:59;99346.63;;;7.27;72.25
63622;BME280;49770;47.544;19.074;2023-03-07T09:08:02;99345.75;;;7.27;70.91
63622;BME280;49770;47.544;19.074;2023-03-07T09:11:04;99341.12;;;6.97;72.41
63622;BME280;49770;47.544;19.074;2023-03-07T09:14:07;99342.75;;;6.99;72.41
63622;BME280;49770;47.544;19.074;2023-03-07T09:17:10;99342.47;;;6.88;72.24
63622;BME280;49770;47.544;19.074;2023-03-07T09:20:13;99344.69;;;7.13;72.57
63622;BME280;49770;47.544;19.074;2023-03-07T09:23:19;99350.72;;;7.15;72.39
63622;BME280;49770;47.544;19.074;2023-03-07T09:26:22;99342.88;;;7.14;73.33
63622;BME280;49770;47.544;19.074;2023-03-07T09:29:25;99344.69;;;6.60;74.08
63622;BME280;49770;47.544;19.074;2023-03-07T09:32:28;99338.19;;;6.50;73.57
63622;BME280;49770;47.544;19.074;2023-03-07T09:35:30;99343.47;;;6.85;74.69
63622;BME280;49770;47.544;19.074;2023-03-07T09:38:34;99334.84;;;7.17;71.43
63622;BME280;49770;47.544;19.074;2023-03-07T09:51:37;99344.53;;;7.66;64.56
63622;BME280;49770;47.544;19.074;2023-03-07T09:54:45;99341.69;;;7.87;66.66
63622;BME280;49770;47.544;19.074;2023-03-07T09:57:53;99342.00;;;8.13;62.44
63622;BME280;49770;47.544;19.074;2023-03-07T10:00:59;99339.78;;;8.05;63.23
63622;BME280;49770;47.544;19.074;2023-03-07T10:04:05;99332.81;;;8.20;62.98
63622;BME280;49770;47.544;19.074;2023-03-07T10:07:09;99337.13;;;8.84;64.82
63622;BME280;49770;47.544;19.074;2023-03-07T10:10:25;99334.81;;;9.23;61.59
63622;BME280;49770;47.544;19.074;2023-03-07T10:17:14;99333.34;;;10.05;57.72
63622;BME280;49770;47.544;19.074;2023-03-07T10:23:26;99339.19;;;10.65;51.54
63622;BME280;49770;47.544;19.074;2023-03-07T10:26:36;99346.59;;;10.60;45.45
63622;BME280;49770;47.544;19.074;2023-03-07T10:29:54;99336.84;;;10.60;45.80
63622;BME280;49770;47.544;19.074;2023-03-07T10:32:58;99341.12;;;10.89;43.03
63622;BME280;49770;47.544;19.074;2023-03-07T10:36:06;99331.78;;;10.70;42.26
63622;BME280;49770;47.544;19.074;2023-03-07T10:39:29;99324.38;;;10.88;43.67
63622;BME280;49770;47.544;19.074;2023-03-07T10:42:36;99329.66;;;10.75;42.75
63622;BME280;49770;47.544;19.074;2023-03-07T10:45:40;99323.44;;;10.49;42.52
63622;BME280;49770;47.544;19.074;2023-03-07T10:48:47;99322.28;;;11.07;43.18
63622;BME280;49770;47.544;19.074;2023-03-07T10:55:32;99316.72;;;10.84;43.19
63622;BME280;49770;47.544;19.074;2023-03-07T10:58:36;99311.09;;;10.75;43.92
63622;BME280;49770;47.544;19.074;2023-03-07T11:01:52;99312.28;;;10.84;44.43
63622;BME280;49770;47.544;19.074;2023-03-07T11:04:56;99291.84;;;10.59;45.54
63622;BME280;49770;47.544;19.074;2023-03-07T11:07:59;99299.84;;;10.72;46.16
63622;BME280;49770;47.544;19.074;2023-03-07T11:11:23;99292.13;;;11.21;44.45
63622;BME280;49770;47.544;19.074;2023-03-07T11:14:27;99286.25;;;10.63;43.70
63622;BME280;49770;47.544;19.074;2023-03-07T11:17:41;99293.13;;;10.25;44.07
63622;BME280;49770;47.544;19.074;2023-03-07T11:20:48;99280.47;;;10.16;44.74
63622;BME280;49770;47.544;19.074;2023-03-07T11:24:08;99279.16;;;9.81;45.53
63622;BME280;49770;47.544;19.074;2023-03-07T11:27:32;99268.53;;;9.54;46.35
63622;BME280;49770;47.544;19.074;2023-03-07T11:30:46;99261.53;;;9.53;46.54
63622;BME280;49770;47.544;19.074;2023-03-07T11:34:09;99253.47;;;9.69;46.52
63622;BME280;49770;47.544;19.074;2023-03-07T11:37:27;99238.94;;;9.89;45.84
63622;BME280;49770;47.544;19.074;2023-03-07T11:44:32;99219.69;;;9.73;47.52
63622;BME280;49770;47.544;19.074;2023-03-07T11:48:01;99225.59;;;9.63;48.36
63622;BME280;49770;47.544;19.074;2023-03-07T11:51:24;99216.66;;;9.79;49.36
63622;BME280;49770;47.544;19.074;2023-03-07T11:58:06;99214.41;;;9.30;53.43
63622;BME280;49770;47.544;19.074;2023-03-07T12:04:37;99209.16;;;8.72;63.75
63622;BME280;49770;47.544;19.074;2023-03-07T12:08:15;99206.13;;;8.79;65.12
63622;BME280;49770;47.544;19.074;2023-03-07T12:11:30;99217.81;;;8.60;66.38
63622;BME280;49770;47.544;19.074;2023-03-07T12:14:44;99210.56;;;8.33;66.01
63622;BME280;49770;47.544;19.074;2023-03-07T12:24:50;99201.03;;;8.00;68.38
63622;BME280;49770;47.544;19.074;2023-03-07T12:31:16;99189.94;;;8.54;66.84
63622;BME280;49770;47.544;19.074;2023-03-07T12:34:32;99192.63;;;8.38;67.23
63622;BME280;49770;47.544;19.074;2023-03-07T12:37:47;99196.94;;;8.25;66.84
63622;BME280;49770;47.544;19.074;2023-03-07T12:40:57;99195.13;;;8.11;67.37
63622;BME280;49770;47.544;19.074;2023-03-07T12:44:05;99191.63;;;8.10;67.76
63622;BME280;49770;47.544;19.074;2023-03-07T12:50:59;99192.37;;;7.81;67.49
63622;BME280;49770;47.544;19.074;2023-03-07T12:54:28;99192.56;;;7.62;68.02
63622;BME280;49770;47.544;19.074;2023-03-07T12:57:38;99196.25;;;7.60;68.29
63622;BME280;49770;47.544;19.074;2023-03-07T13:00:47;99189.16;;;7.60;66.38
63622;BME280;49770;47.544;19.074;2023-03-07T13:07:20;99196.59;;;7.37;64.65
63622;BME280;49770;47.544;19.074;2023-03-07T13:10:26;99192.25;;;7.52;63.55
63622;BME280;49770;47.544;19.074;2023-03-07T13:16:49;99195.81;;;7.35;61.93
63622;BME280;49770;47.544;19.074;2023-03-07T13:20:40;99200.72;;;7.09;63.03
63622;BME280;49770;47.544;19.074;2023-03-07T13:23:24;99209.66;;;7.07;64.36
63622;BME280;49770;47.544;19.074;2023-03-07T13:33:31;99201.56;;;6.60;69.71
63622;BME280;49770;47.544;19.074;2023-03-07T13:36:37;99199.97;;;6.40;72.35
63622;BME280;49770;47.544;19.074;2023-03-07T13:39:58;99204.97;;;6.44;72.83
63622;BME280;49770;47.544;19.074;2023-03-07T13:54:09;99192.81;;;6.42;74.46
63622;BME280;49770;47.544;19.074;2023-03-07T13:57:17;99185.13;;;6.55;74.05
63622;BME280;49770;47.544;19.074;2023-03-07T14:00:26;99183.19;;;6.58;73.29
63622;BME280;49770;47.544;19.074;2023-03-07T14:03:42;99180.34;;;6.45;74.52
63622;BME280;49770;47.544;19.074;2023-03-07T14:06:49;99172.28;;;6.49;75.03
63622;BME280;49770;47.544;19.074;2023-03-07T14:10:02;99171.34;;;6.50;73.86
63622;BME280;49770;47.544;19.074;2023-03-07T14:13:47;99167.09;;;6.47;74.61
63622;BME280;49770;47.544;19.074;2023-03-07T14:20:06;99151.09;;;6.68;73.73
63622;BME280;49770;47.544;19.074;2023-03-07T14:26:49;99134.69;;;6.63;74.43
63622;BME280;49770;47.544;19.074;2023-03-07T14:29:54;99146.31;;;6.58;74.58
63622;BME280;49770;47.544;19.074;2023-03-07T14:32:59;99149.91;;;6.73;73.83
63622;BME280;49770;47.544;19.074;2023-03-07T14:36:13;99151.28;;;6.47;75.10
63622;BME280;49770;47.544;19.074;2023-03-07T14:39:19;99150.16;;;6.35;75.19
63622;BME280;49770;47.544;19.074;2023-03-07T14:43:08;99147.53;;;6.35;75.20
63622;BME280;49770;47.544;19.074;2023-03-07T14:52:29;99140.34;;;6.03;79.31
63622;BME280;49770;47.544;19.074;2023-03-07T14:55:36;99149.44;;;5.96;80.75
63622;BME280;49770;47.544;19.074;2023-03-07T14:59:07;99139.91;;;5.93;81.33
63622;BME280;49770;47.544;19.074;2023-03-07T15:02:20;99142.38;;;5.97;82.18
63622;BME280;49770;47.544;19.074;2023-03-07T15:05:26;99139.59;;;6.00;82.44
63622;BME280;49770;47.544;19.074;2023-03-07T15:08:32;99140.19;;;6.06;82.16
63622;BME280;49770;47.544;19.074;2023-03-07T15:11:39;99132.56;;;6.00;83.35
63622;BME280;49770;47.544;19.074;2023-03-07T15:14:53;99140.22;;;5.87;85.01
63622;BME280;49770;47.544;19.074;2023-03-07T15:18:04;99132.63;;;5.81;86.57
63622;BME280;49770;47.544;19.074;2023-03-07T15:21:18;99130.31;;;5.75;88.31
63622;BME280;49770;47.544;19.074;2023-03-07T15:24:31;99133.84;;;5.56;91.69
63622;BME280;49770;47.544;19.074;2023-03-07T15:27:34;99129.06;;;5.64;93.01
63622;BME280;49770;47.544;19.074;2023-03-07T15:30:37;99126.22;;;5.69;93.79
63622;BME280;49770;47.544;19.074;2023-03-07T15:33:41;99129.25;;;5.79;93.27
63622;BME280;49770;47.544;19.074;2023-03-07T15:36:44;99132.00;;;5.76;94.11
63622;BME280;49770;47.544;19.074;2023-03-07T15:40:00;99132.56;;;5.65;95.25
63622;BME280;49770;47.544;19.074;2023-03-07T15:44:23;99125.66;;;5.62;95.23
63622;BME280;49770;47.544;19.074;2023-03-07T15:47:49;99102.34;;;5.55;94.82
63622;BME280;49770;47.544;19.074;2023-03-07T15:50:58;99107.97;;;5.47;96.87
63622;BME280;49770;47.544;19.074;2023-03-07T15:57:38;99106.34;;;5.26;98.71
63622;BME280;49770;47.544;19.074;2023-03-07T16:00:49;99096.41;;;5.14;100.00
63622;BME280;49770;47.544;19.074;2023-03-07T16:03:59;99097.88;;;5.20;100.00
63622;BME280;49770;47.544;19.074;2023-03-07T16:07:04;99093.09;;;5.28;100.00
63622;BME280;49770;47.544;19.074;2023-03-07T16:10:09;99085.59;;;5.20;100.00
63622;BME280;49770;47.544;19.074;2023-03-07T16:13:23;99083.28;;;5.14;100.00
63622;BME280;49770;47.544;19.074;2023-03-07T16:16:32;99074.69;;;5.10;100.00
63622;BME280;49770;47.544;19.074;2023-03-07T16:19:39;99077.22;;;5.12;100.00
63622;BME280;49770;47.544;19.074;2023-03-07T16:22:46;99083.34;;;5.12;100.00
63622;BME280;49770;47.544;19.074;2023-03-07T16:25:53;99079.94;;;5.10;100.00
